Time;durP1;ratioP1;P1;durP2;ratioP2;P2;SDS_P1;SDS_P2;PMS_P1;PMS_P2;Temp;Humidity;BMP_temperature;BMP_pressure;BME280_temperature;BME280_humidity;BME280_pressure;Samples;Min_cycle;Max_cycle;Signal;HPM_P1;HPM_P2
2024/01/11 00:00:32;;;;;;;25.75;15.40;;;;;;;;;;5008247;28;20451;-53
2024/01/11 00:02:57;;;;;;;29.17;15.82;;;-4.20;99.90;;;;;;5009686;28;20042;-49
2024/01/11 00:05:23;;;;;;;30.83;17.33;;;-4.20;99.90;;;;;;5009440;28;20034;-52
2024/01/11 00:07:49;;;;;;;30.73;16.80;;;;;;;;;;5008720;28;20318;-50
2024/01/11 00:10:16;;;;;;;28.13;16.38;;;;;;;;;;5009179;28;20092;-50
2024/01/11 00:12:42;;;;;;;28.65;16.42;;;;;;;;;;5008554;28;20417;-51
2024/01/11 00:15:08;;;;;;;30.90;17.42;;;;;;;;;;4991038;28;20045;-52
2024/01/11 00:17:34;;;;;;;30.65;17.08;;;;;;;;;;5009078;28;20061;-51
2024/01/11 00:20:01;;;;;;;30.27;17.95;;;;;;;;;;4992824;28;20485;-51
2024/01/11 00:22:27;;;;;;;31.10;17.88;;;;;;;;;;5008275;28;20393;-49
2024/01/11 00:24:52;;;;;;;32.15;17.70;;;-4.10;99.90;;;;;;5009459;28;20042;-51
2024/01/11 00:27:18;;;;;;;31.65;17.38;;;;;;;;;;5010465;28;20117;-54
2024/01/11 00:29:44;;;;;;;28.23;17.38;;;;;;;;;;5007057;28;20136;-49
2024/01/11 00:32:10;;;;;;;28.65;16.73;;;;;;;;;;5080007;22;21036;-50
2024/01/11 00:34:36;;;;;;;28.65;17.60;;;;;;;;;;5036655;28;20121;-49
2024/01/11 00:37:03;;;;;;;32.20;18.23;;;;;;;;;;5043021;28;20063;-48
2024/01/11 00:39:29;;;;;;;30.20;18.10;;;;;;;;;;5050519;28;20036;-48
2024/01/11 00:41:55;;;;;;;30.25;18.30;;;;;;;;;;5049158;28;20090;-48
2024/01/11 00:44:21;;;;;;;33.05;18.17;;;;;;;;;;5046795;28;20043;-50
2024/01/11 00:46:47;;;;;;;33.85;17.65;;;;;;;;;;5044181;28;20121;-48
2024/01/11 00:49:15;;;;;;;33.53;18.08;;;-3.70;99.90;;;;;;5044332;28;20049;-48
2024/01/11 00:51:41;;;;;;;34.72;19.58;;;;;;;;;;5044006;28;20060;-48
2024/01/11 00:54:07;;;;;;;36.17;18.58;;;;;;;;;;5043054;28;20146;-48
2024/01/11 00:56:33;;;;;;;31.45;18.70;;;;;;;;;;5055899;28;20029;-48
2024/01/11 00:58:59;;;;;;;33.90;18.75;;;;;;;;;;5044835;28;20032;-49
2024/01/11 01:01:25;;;;;;;31.92;18.17;;;;;;;;;;5041038;28;20128;-48
2024/01/11 01:03:51;;;;;;;34.72;20.30;;;;;;;;;;5051382;28;20044;-48
2024/01/11 01:06:17;;;;;;;34.20;19.05;;;;;;;;;;5047669;28;20045;-48
2024/01/11 01:08:43;;;;;;;34.25;19.42;;;;;;;;;;5044905;28;20056;-49
2024/01/11 01:11:09;;;;;;;34.85;19.63;;;;;;;;;;5042120;28;20037;-48
2024/01/11 01:13:35;;;;;;;34.00;19.73;;;;;;;;;;5049255;28;20420;-49
2024/01/11 01:16:01;;;;;;;33.42;19.67;;;-4.10;99.90;;;;;;5046462;28;20033;-48
2024/01/11 01:18:27;;;;;;;36.88;20.17;;;;;;;;;;5047607;28;20036;-48
2024/01/11 01:20:53;;;;;;;37.28;19.58;;;;;;;;;;5045636;28;20040;-48
2024/01/11 01:23:18;;;;;;;37.35;19.67;;;-4.10;99.90;;;;;;5048309;28;20480;-48
2024/01/11 01:25:45;;;;;;;33.38;18.92;;;;;;;;;;5045991;28;20286;-53
2024/01/11 01:28:11;;;;;;;36.03;20.52;;;;;;;;;;5052820;28;20130;-51
2024/01/11 01:30:37;;;;;;;32.55;18.35;;;;;;;;;;5055413;28;20436;-49
2024/01/11 01:33:03;;;;;;;37.97;20.38;;;;;;;;;;5053864;28;20038;-49
2024/01/11 01:35:29;;;;;;;35.67;20.45;;;;;;;;;;5053018;28;20068;-48
2024/01/11 01:37:55;;;;;;;33.05;19.05;;;;;;;;;;5054997;28;20539;-48
2024/01/11 01:40:21;;;;;;;36.20;20.85;;;;;;;;;;5047986;28;20041;-51
2024/01/11 01:42:48;;;;;;;35.05;19.90;;;-4.60;99.90;;;;;;5045092;28;20045;-48
2024/01/11 01:45:15;;;;;;;34.03;19.20;;;;;;;;;;5045517;28;20142;-48
2024/01/11 01:47:42;;;;;;;38.67;20.23;;;;;;;;;;5045559;28;20075;-48
2024/01/11 01:50:08;;;;;;;36.58;19.17;;;;;;;;;;5047642;28;20056;-48
2024/01/11 01:52:35;;;;;;;36.88;21.02;;;;;;;;;;5057012;28;20032;-48
2024/01/11 01:55:02;;;;;;;37.13;20.27;;;;;;;;;;5045177;28;20048;-48
2024/01/11 01:57:28;;;;;;;34.45;19.48;;;;;;;;;;5031970;28;20510;-49
2024/01/11 01:59:55;;;;;;;37.30;21.05;;;;;;;;;;5050823;28;20400;-48
2024/01/11 02:02:21;;;;;;;41.03;20.63;;;;;;;;;;5052184;28;20036;-49
2024/01/11 02:04:47;;;;;;;39.15;21.52;;;;;;;;;;5047363;28;20099;-49
2024/01/11 02:07:14;;;;;;;37.17;21.30;;;;;;;;;;5049731;28;20036;-49
2024/01/11 02:09:40;;;;;;;34.63;20.65;;;;;;;;;;5050439;28;20071;-49
2024/01/11 02:12:10;;;;;;;35.17;19.90;;;-4.50;99.90;;;;;;5049120;28;20049;-48
2024/01/11 02:14:38;;;;;;;36.60;20.27;;;;;;;;;;5046447;28;20037;-50
2024/01/11 02:17:04;;;;;;;38.05;20.92;;;;;;;;;;5044861;28;20032;-48
2024/01/11 02:19:30;;;;;;;34.35;19.05;;;;;;;;;;5038673;28;20523;-48
2024/01/11 02:21:57;;;;;;;35.22;19.23;;;;;;;;;;5046691;28;20040;-48
2024/01/11 02:24:23;;;;;;;38.75;20.40;;;;;;;;;;5040621;28;20073;-49
2024/01/11 02:27:03;;;;;;;40.90;21.13;;;;;;;;;;5053020;28;20068;-48
2024/01/11 02:29:29;;;;;;;36.05;19.10;;;;;;;;;;5040100;28;20037;-48
2024/01/11 02:32:00;;;;;;;33.97;19.75;;;;;;;;;;5046403;28;20420;-53
2024/01/11 02:34:27;;;;;;;34.10;19.05;;;;;;;;;;5032353;28;20037;-49
2024/01/11 02:36:56;;;;;;;30.58;17.73;;;-4.00;99.90;;;;;;5040112;28;20102;-48
2024/01/11 02:39:23;;;;;;;33.33;19.90;;;;;;;;;;5022680;28;20048;-49
2024/01/11 02:41:51;;;;;;;34.78;18.10;;;-4.80;99.90;;;;;;5047880;28;20037;-49
2024/01/11 02:44:17;;;;;;;35.17;18.65;;;;;;;;;;5040891;28;20041;-51
2024/01/11 02:46:43;;;;;;;37.08;18.65;;;;;;;;;;5022461;28;20040;-48
2024/01/11 02:49:09;;;;;;;35.20;19.55;;;;;;;;;;5036965;28;20045;-48
2024/01/11 02:51:36;;;;;;;37.25;19.73;;;-4.70;99.90;;;;;;5035644;28;20040;-51
2024/01/11 02:54:02;;;;;;;38.30;19.15;;;;;;;;;;5040428;28;20045;-50
2024/01/11 02:56:28;;;;;;;37.47;20.10;;;;;;;;;;5050823;28;20038;-51
2024/01/11 02:58:54;;;;;;;34.28;18.77;;;;;;;;;;5042920;28;20128;-51
2024/01/11 03:01:20;;;;;;;39.33;20.75;;;;;;;;;;5044404;28;20049;-48
2024/01/11 03:03:46;;;;;;;37.70;20.63;;;;;;;;;;5041333;28;20045;-52
2024/01/11 03:06:12;;;;;;;37.88;20.58;;;-4.70;99.90;;;;;;5037130;28;20040;-53
2024/01/11 03:08:38;;;;;;;38.10;19.33;;;;;;;;;;5042767;28;20038;-48
2024/01/11 03:11:04;;;;;;;41.67;20.25;;;;;;;;;;5040735;28;20496;-49
2024/01/11 03:13:30;;;;;;;35.40;19.90;;;;;;;;;;5047753;28;20493;-48
2024/01/11 03:15:57;;;;;;;36.75;18.60;;;;;;;;;;5045705;28;20040;-47
2024/01/11 03:18:22;;;;;;;38.40;19.92;;;-4.50;99.90;;;;;;5043221;28;20041;-48
2024/01/11 03:20:48;;;;;;;38.33;21.17;;;;;;;;;;5040657;28;20094;-48
2024/01/11 03:23:14;;;;;;;38.47;19.48;;;-4.50;99.90;;;;;;5042101;28;20511;-48
2024/01/11 03:25:40;;;;;;;37.17;19.75;;;;;;;;;;5041179;28;20033;-48
2024/01/11 03:28:05;;;;;;;39.15;20.52;;;-4.60;99.90;;;;;;5041641;28;20052;-49
2024/01/11 03:30:31;;;;;;;37.22;20.98;;;;;;;;;;5036287;28;20400;-49
2024/01/11 03:32:57;;;;;;;35.40;19.90;;;;;;;;;;5042303;28;20100;-49
2024/01/11 03:35:23;;;;;;;40.72;20.42;;;;;;;;;;5036629;28;20629;-48
2024/01/11 03:37:49;;;;;;;38.70;20.23;;;;;;;;;;5041181;28;20037;-48
2024/01/11 03:40:15;;;;;;;39.72;21.30;;;-4.60;99.90;;;;;;5039411;28;20044;-47
2024/01/11 03:42:43;;;;;;;36.13;20.08;;;;;;;;;;5044679;28;20419;-48
2024/01/11 03:45:09;;;;;;;39.78;21.35;;;;;;;;;;5025605;28;20067;-50
2024/01/11 03:47:35;;;;;;;36.67;19.38;;;;;;;;;;5045410;28;20137;-47
2024/01/11 03:50:01;;;;;;;37.15;19.92;;;;;;;;;;5049641;28;20070;-48
2024/01/11 03:52:28;;;;;;;38.97;21.63;;;;;;;;;;5042366;28;20112;-47
2024/01/11 03:54:53;;;;;;;41.50;21.58;;;-4.50;99.90;;;;;;5043246;28;20034;-48
2024/01/11 03:57:19;;;;;;;39.00;20.13;;;;;;;;;;5047975;28;20087;-48
2024/01/11 03:59:45;;;;;;;38.85;21.20;;;;;;;;;;5047339;28;20531;-47
2024/01/11 04:02:11;;;;;;;35.92;19.73;;;-4.50;99.90;;;;;;5042909;28;20033;-47
2024/01/11 04:04:37;;;;;;;38.00;20.23;;;;;;;;;;5045735;28;20126;-49
2024/01/11 04:07:03;;;;;;;37.47;19.40;;;-4.50;99.90;;;;;;5042935;28;20044;-48
2024/01/11 04:09:29;;;;;;;39.95;21.33;;;;;;;;;;5048612;28;20430;-48
2024/01/11 04:11:55;;;;;;;39.70;20.92;;;;;;;;;;5049580;28;20519;-48
2024/01/11 04:14:21;;;;;;;35.42;20.55;;;;;;;;;;5046317;28;20041;-49
2024/01/11 04:16:47;;;;;;;38.40;20.92;;;;;;;;;;5039170;28;20429;-49
2024/01/11 04:19:13;;;;;;;42.80;23.08;;;;;;;;;;5040092;28;20037;-47
2024/01/11 04:21:39;;;;;;;35.67;20.65;;;;;;;;;;5042003;28;20142;-48
2024/01/11 04:24:08;;;;;;;36.58;19.63;;;;;;;;;;5045778;28;20128;-48
2024/01/11 04:26:33;;;;;;;39.90;20.55;;;-4.60;99.90;;;;;;5039450;28;20036;-48
2024/01/11 04:28:59;;;;;;;41.03;21.77;;;;;;;;;;5043690;28;20041;-48
2024/01/11 04:31:26;;;;;;;45.45;22.25;;;;;;;;;;5043883;28;20041;-47
2024/01/11 04:33:52;;;;;;;36.88;19.45;;;;;;;;;;5049646;28;20049;-48
2024/01/11 04:36:18;;;;;;;35.38;19.92;;;;;;;;;;5040727;28;20033;-47
2024/01/11 04:38:44;;;;;;;40.22;21.08;;;;;;;;;;5044865;28;20091;-47
2024/01/11 04:41:11;;;;;;;42.03;21.77;;;-4.10;99.90;;;;;;5048509;28;20040;-47
2024/01/11 04:43:39;;;;;;;40.92;22.52;;;;;;;;;;5043600;28;20048;-47
2024/01/11 04:46:12;;;;;;;35.28;20.08;;;;;;;;;;5039769;28;20060;-48
2024/01/11 04:48:38;;;;;;;37.27;20.97;;;-4.80;99.90;;;;;;5044278;28;20447;-47
2024/01/11 04:51:04;;;;;;;41.00;21.80;;;-4.60;99.90;;;;;;5030823;28;20033;-48
2024/01/11 04:53:30;;;;;;;39.17;21.30;;;;;;;;;;5041183;28;20071;-47
2024/01/11 04:55:56;;;;;;;38.35;20.75;;;;;;;;;;5029398;28;20033;-47
2024/01/11 04:58:22;;;;;;;40.58;22.33;;;;;;;;;;5044560;28;20048;-48
2024/01/11 05:00:48;;;;;;;41.80;22.67;;;;;;;;;;5044622;28;20065;-50
2024/01/11 05:03:14;;;;;;;40.72;21.63;;;;;;;;;;5047063;28;20039;-48
2024/01/11 05:05:40;;;;;;;41.58;21.42;;;;;;;;;;5039590;28;20412;-48
2024/01/11 05:08:06;;;;;;;42.33;22.30;;;;;;;;;;5047508;28;20049;-49
2024/01/11 05:10:31;;;;;;;37.90;20.88;;;-3.70;99.90;;;;;;5043540;28;20048;-50
2024/01/11 05:12:57;;;;;;;38.67;21.75;;;-3.50;99.90;;;;;;5051410;28;20124;-49
2024/01/11 05:15:23;;;;;;;41.33;22.13;;;;;;;;;;5040838;28;20076;-50
2024/01/11 05:17:49;;;;;;;37.55;21.02;;;;;;;;;;5047083;28;20040;-50
2024/01/11 05:20:15;;;;;;;39.10;22.10;;;;;;;;;;5045660;28;20114;-50
2024/01/11 05:22:41;;;;;;;36.55;22.17;;;;;;;;;;5043862;28;20044;-50
2024/01/11 05:25:07;;;;;;;42.70;22.23;;;-3.10;99.90;;;;;;5046315;28;20408;-48
2024/01/11 05:27:33;;;;;;;38.80;20.95;;;;;;;;;;5040078;28;20041;-49
2024/01/11 05:29:58;;;;;;;41.95;21.65;;;-2.80;99.90;;;;;;5043414;28;20037;-52
2024/01/11 05:32:25;;;;;;;38.50;20.48;;;;;;;;;;5027154;28;20076;-49
2024/01/11 05:34:50;;;;;;;37.67;21.15;;;-2.70;99.90;;;;;;5029184;28;20482;-49
2024/01/11 05:37:16;;;;;;;41.90;21.70;;;;;;;;;;5036640;28;20112;-47
2024/01/11 05:39:42;;;;;;;39.13;21.20;;;;;;;;;;5042161;28;20025;-46
2024/01/11 05:42:08;;;;;;;36.33;20.05;;;;;;;;;;5051312;28;20124;-45
2024/01/11 05:44:34;;;;;;;39.65;21.88;;;-2.60;99.90;;;;;;5038257;28;20038;-47
2024/01/11 05:47:00;;;;;;;38.80;21.17;;;;;;;;;;5042347;28;20408;-50
2024/01/11 05:49:26;;;;;;;38.20;20.85;;;-2.40;99.90;;;;;;5047590;28;20043;-46
2024/01/11 05:51:51;;;;;;;35.70;20.23;;;;;;;;;;5046726;28;20041;-46
2024/01/11 05:54:17;;;;;;;41.38;22.58;;;;;;;;;;5042226;28;20038;-46
2024/01/11 05:56:44;;;;;;;39.72;21.52;;;;;;;;;;5045345;28;20044;-48
2024/01/11 05:59:10;;;;;;;38.78;22.38;;;;;;;;;;5037720;28;20076;-47
2024/01/11 06:01:42;;;;;;;37.13;20.58;;;;;;;;;;5048401;28;20157;-47
2024/01/11 06:04:08;;;;;;;35.38;20.08;;;;;;;;;;5052503;28;20253;-47
2024/01/11 06:06:34;;;;;;;37.83;22.50;;;;;;;;;;5050064;28;20110;-46
2024/01/11 06:09:00;;;;;;;37.30;21.30;;;;;;;;;;5048741;28;20170;-47
2024/01/11 06:11:26;;;;;;;36.72;20.70;;;;;;;;;;5047583;28;20039;-45
2024/01/11 06:13:52;;;;;;;37.00;21.33;;;-2.30;99.90;;;;;;5054682;28;20043;-45
2024/01/11 06:16:18;;;;;;;36.03;20.83;;;;;;;;;;5047102;28;20033;-46
2024/01/11 06:18:44;;;;;;;37.42;20.65;;;;;;;;;;5040284;28;20041;-48
2024/01/11 06:21:10;;;;;;;41.17;20.77;;;;;;;;;;5043240;28;20037;-45
2024/01/11 06:23:37;;;;;;;39.25;21.77;;;;;;;;;;5038801;28;20041;-46
2024/01/11 06:26:03;;;;;;;36.30;21.83;;;-1.90;99.90;;;;;;5037816;28;20037;-46
2024/01/11 06:28:29;;;;;;;35.17;20.23;;;;;;;;;;5039556;28;20033;-48
2024/01/11 06:30:55;;;;;;;39.65;20.65;;;;;;;;;;5045819;28;20087;-46
2024/01/11 06:33:21;;;;;;;38.85;21.40;;;;;;;;;;5087096;23;20057;-52
2024/01/11 06:35:47;;;;;;;37.67;20.40;;;;;;;;;;4948746;28;20130;-51
2024/01/11 06:38:13;;;;;;;36.92;21.60;;;;;;;;;;4948174;28;20118;-51
2024/01/11 06:40:39;;;;;;;34.05;19.40;;;;;;;;;;4935757;28;20039;-54
2024/01/11 06:43:05;;;;;;;37.42;21.35;;;;;;;;;;4923099;28;20473;-51
2024/01/11 06:45:31;;;;;;;39.40;20.00;;;;;;;;;;4944856;28;20055;-53
2024/01/11 06:47:57;;;;;;;37.42;20.42;;;;;;;;;;4944161;28;20054;-53
2024/01/11 06:50:22;;;;;;;35.42;20.98;;;-1.70;99.90;;;;;;4942278;28;20047;-50
2024/01/11 06:52:48;;;;;;;37.78;21.48;;;;;;;;;;4943838;28;20058;-52
2024/01/11 06:55:14;;;;;;;39.58;19.75;;;;;;;;;;4946169;28;20050;-51
2024/01/11 06:57:40;;;;;;;39.00;22.02;;;;;;;;;;4947372;28;20122;-52
2024/01/11 07:00:10;;;;;;;38.03;21.77;;;;;;;;;;4942388;29;20122;-50
2024/01/11 07:02:36;;;;;;;38.67;21.85;;;;;;;;;;4943822;28;20102;-52
2024/01/11 07:05:02;;;;;;;36.88;21.30;;;;;;;;;;4945472;29;20051;-52
2024/01/11 07:07:28;;;;;;;38.17;21.52;;;;;;;;;;4945181;28;20078;-52
2024/01/11 07:09:55;;;;;;;38.00;19.92;;;;;;;;;;4943196;28;20289;-50
2024/01/11 07:12:21;;;;;;;39.17;21.25;;;;;;;;;;4942655;28;20051;-53
2024/01/11 07:14:47;;;;;;;38.38;21.20;;;-1.30;99.90;;;;;;4944511;28;20459;-52
2024/01/11 07:17:12;;;;;;;35.78;19.35;;;;;;;;;;4943379;29;20035;-54
2024/01/11 07:19:38;;;;;;;34.08;20.95;;;;;;;;;;4942954;28;20039;-53
2024/01/11 07:22:04;;;;;;;39.10;22.63;;;;;;;;;;4945490;28;20105;-52
2024/01/11 07:24:37;;;;;;;35.60;20.45;;;;;;;;;;4949570;28;20047;-54
2024/01/11 07:27:06;;;;;;;38.90;20.55;;;;;;;;;;4949243;28;20059;-55
2024/01/11 07:29:32;;;;;;;36.53;20.40;;;;;;;;;;4946023;29;21287;-56
2024/01/11 07:31:58;;;;;;;37.35;20.00;;;-1.00;99.90;;;;;;4930570;29;20134;-55
2024/01/11 07:34:24;;;;;;;36.15;21.38;;;;;;;;;;4948570;28;20133;-52
2024/01/11 07:36:50;;;;;;;36.53;21.05;;;;;;;;;;4947617;29;20058;-53
2024/01/11 07:39:17;;;;;;;35.40;20.20;;;;;;;;;;4946930;28;20686;-54
2024/01/11 07:41:43;;;;;;;34.85;20.30;;;;;;;;;;4946813;28;20047;-51
2024/01/11 07:44:09;;;;;;;34.38;19.90;;;;;;;;;;4947267;28;20114;-51
2024/01/11 07:46:36;;;;;;;37.03;21.25;;;;;;;;;;4945503;29;20575;-52
2024/01/11 07:49:02;;;;;;;37.65;19.98;;;;;;;;;;4947670;28;20078;-52
2024/01/11 07:51:28;;;;;;;32.38;19.00;;;;;;;;;;4946244;28;20098;-54
2024/01/11 07:53:54;;;;;;;38.05;22.13;;;;;;;;;;4946015;28;20055;-54
2024/01/11 07:56:20;;;;;;;30.10;19.13;;;-0.80;99.90;;;;;;4943001;29;20042;-55
2024/01/11 07:58:46;;;;;;;31.83;19.67;;;;;;;;;;4943809;28;20122;-54
2024/01/11 08:01:12;;;;;;;34.92;20.15;;;;;;;;;;4942735;28;20396;-53
2024/01/11 08:03:38;;;;;;;33.22;19.23;;;;;;;;;;4943642;28;20130;-53
2024/01/11 08:06:07;;;;;;;31.63;18.65;;;;;;;;;;4948181;28;20043;-52
2024/01/11 08:08:33;;;;;;;31.10;18.20;;;;;;;;;;4943582;29;20118;-53
2024/01/11 08:10:59;;;;;;;32.50;18.27;;;;;;;;;;4947412;29;20415;-52
2024/01/11 08:13:25;;;;;;;39.13;19.42;;;;;;;;;;4946517;28;20095;-53
2024/01/11 08:15:53;;;;;;;35.78;19.33;;;;;;;;;;4947253;28;20134;-54
2024/01/11 08:18:19;;;;;;;32.55;18.52;;;;;;;;;;4946719;28;20043;-53
2024/01/11 08:20:45;;;;;;;30.73;18.17;;;-0.60;99.90;;;;;;4946318;28;20054;-52
2024/01/11 08:23:11;;;;;;;34.45;19.05;;;;;;;;;;4948971;28;20491;-52
2024/01/11 08:25:37;;;;;;;33.35;18.67;;;;;;;;;;4947360;28;20043;-52
2024/01/11 08:28:03;;;;;;;35.88;19.35;;;;;;;;;;4949316;28;20058;-56
2024/01/11 08:30:29;;;;;;;34.03;19.15;;;-0.40;99.90;;;;;;4947159;28;20415;-54
2024/01/11 08:32:55;;;;;;;32.20;18.92;;;;;;;;;;4947207;28;20050;-51
2024/01/11 08:35:21;;;;;;;33.05;19.42;;;;;;;;;;4946812;28;20142;-52
2024/01/11 08:37:47;;;;;;;33.45;17.95;;;;;;;;;;4944348;28;20507;-54
2024/01/11 08:40:13;;;;;;;30.75;17.92;;;-0.20;99.90;;;;;;4945618;29;20039;-54
2024/01/11 08:42:41;;;;;;;27.70;16.63;;;;;;;;;;4946656;28;20392;-54
2024/01/11 08:45:07;;;;;;;31.75;18.10;;;;;;;;;;4947257;28;20043;-55
2024/01/11 08:47:34;;;;;;;32.38;17.95;;;;;;;;;;4929877;29;20506;-54
2024/01/11 08:50:00;;;;;;;40.22;19.67;;;0.00;99.90;;;;;;4947073;29;20057;-53
2024/01/11 08:52:26;;;;;;;29.70;18.30;;;;;;;;;;4946062;28;20038;-54
2024/01/11 08:54:52;;;;;;;31.70;19.15;;;;;;;;;;4947655;28;20168;-51
2024/01/11 08:57:18;;;;;;;32.03;19.20;;;;;;;;;;4946856;28;20475;-53
2024/01/11 08:59:44;;;;;;;29.25;17.13;;;;;;;;;;4946613;28;20047;-54
2024/01/11 09:02:10;;;;;;;31.42;18.42;;;;;;;;;;4946309;28;20123;-54
2024/01/11 09:04:36;;;;;;;30.90;16.98;;;;;;;;;;4946967;28;20182;-53
2024/01/11 09:07:02;;;;;;;29.70;17.67;;;;;;;;;;4946790;28;20035;-54
2024/01/11 09:09:28;;;;;;;29.90;17.20;;;;;;;;;;4945754;28;20045;-52
2024/01/11 09:11:54;;;;;;;31.42;17.88;;;;;;;;;;4946610;28;20043;-52
2024/01/11 09:14:20;;;;;;;30.92;17.60;;;0.50;99.90;;;;;;4946784;28;20094;-52
2024/01/11 09:16:48;;;;;;;31.80;16.75;;;0.60;99.90;;;;;;4947425;28;21433;-50
2024/01/11 09:19:14;;;;;;;28.40;17.70;;;;;;;;;;4946481;28;20047;-51
2024/01/11 09:21:42;;;;;;;34.33;18.83;;;;;;;;;;4946412;28;20043;-54
2024/01/11 09:24:08;;;;;;;27.92;17.05;;;;;;;;;;4946704;28;20047;-54
2024/01/11 09:26:36;;;;;;;28.90;16.60;;;;;;;;;;4945728;28;20586;-51
2024/01/11 09:29:02;;;;;;;27.77;16.67;;;;;;;;;;4946651;28;20515;-54
2024/01/11 09:31:28;;;;;;;32.70;17.85;;;;;;;;;;4946125;29;20047;-52
2024/01/11 09:33:56;;;;;;;32.45;18.13;;;;;;;;;;4946260;28;20751;-51
2024/01/11 09:36:23;;;;;;;36.20;19.63;;;;;;;;;;4944123;29;20047;-54
2024/01/11 09:38:49;;;;;;;28.60;17.17;;;;;;;;;;4944791;28;20070;-55
2024/01/11 09:41:15;;;;;;;28.08;17.95;;;;;;;;;;4944847;29;20074;-54
2024/01/11 09:43:42;;;;;;;31.33;17.48;;;;;;;;;;4945389;28;20031;-51
2024/01/11 09:46:09;;;;;;;28.77;17.23;;;;;;;;;;4945418;28;20039;-54
2024/01/11 09:48:37;;;;;;;28.30;17.67;;;;;;;;;;4945350;28;20118;-54
2024/01/11 09:51:06;;;;;;;29.33;16.48;;;;;;;;;;4946150;29;20107;-53
2024/01/11 09:53:32;;;;;;;27.63;15.77;;;;;;;;;;4946727;28;20043;-55
2024/01/11 09:56:02;;;;;;;26.30;16.65;;;;;;;;;;4945753;29;20578;-54
2024/01/11 09:58:29;;;;;;;27.92;17.02;;;1.10;99.90;;;;;;4928431;29;20049;-53
2024/01/11 10:00:56;;;;;;;28.30;16.23;;;;;;;;;;4944852;29;20042;-51
2024/01/11 10:03:24;;;;;;;27.58;17.38;;;;;;;;;;4942894;28;20511;-55
2024/01/11 10:05:51;;;;;;;26.08;16.55;;;;;;;;;;4943967;28;20459;-53
2024/01/11 10:08:19;;;;;;;26.77;16.58;;;;;;;;;;4945306;28;20043;-52
2024/01/11 10:10:45;;;;;;;30.83;20.40;;;;;;;;;;4943855;29;20050;-54
2024/01/11 10:13:11;;;;;;;31.70;18.17;;;;;;;;;;4945435;28;20043;-53
2024/01/11 10:15:37;;;;;;;28.80;17.17;;;;;;;;;;4944636;29;20109;-54
2024/01/11 10:18:03;;;;;;;28.30;16.70;;;;;;;;;;4946337;28;20035;-54
2024/01/11 10:20:31;;;;;;;29.05;17.48;;;;;;;;;;4945143;28;20045;-54
2024/01/11 10:22:59;;;;;;;28.15;16.88;;;;;;;;;;4927984;29;20130;-52
2024/01/11 10:25:25;;;;;;;30.90;17.10;;;;;;;;;;4945170;28;20699;-56
2024/01/11 10:27:51;;;;;;;28.00;17.25;;;1.80;99.90;;;;;;4944247;28;20055;-54
2024/01/11 10:30:17;;;;;;;27.67;16.38;;;;;;;;;;4944697;29;20380;-56
2024/01/11 10:32:47;;;;;;;31.08;17.35;;;;;;;;;;4943228;29;20129;-54
2024/01/11 10:35:13;;;;;;;28.30;17.20;;;;;;;;;;4945266;28;20075;-52
2024/01/11 10:37:40;;;;;;;29.38;17.98;;;;;;;;;;4943785;28;20041;-56
2024/01/11 10:40:10;;;;;;;26.48;16.08;;;;;;;;;;4944498;29;20154;-55
2024/01/11 10:42:40;;;;;;;26.65;17.17;;;;;;;;;;4944277;29;20043;-54
2024/01/11 10:45:10;;;;;;;27.73;16.30;;;;;;;;;;4945556;28;20061;-56
2024/01/11 10:47:38;;;;;;;27.90;17.45;;;;;;;;;;4944535;28;20039;-55
2024/01/11 10:50:05;;;;;;;27.63;15.85;;;;;;;;;;4944592;29;20043;-54
2024/01/11 10:52:36;;;;;;;24.60;15.88;;;;;;;;;;4940597;29;20139;-55
2024/01/11 10:55:02;;;;;;;27.85;15.93;;;;;;;;;;4945325;28;20035;-54
2024/01/11 10:57:29;;;;;;;28.75;17.10;;;;;;;;;;4944691;29;20042;-57
2024/01/11 10:59:57;;;;;;;26.80;15.38;;;;;;;;;;4943058;29;20047;-54
2024/01/11 11:02:23;;;;;;;26.20;16.42;;;;;;;;;;4943067;28;20055;-54
2024/01/11 11:04:52;;;;;;;27.55;16.65;;;;;;;;;;4945386;28;20103;-54
2024/01/11 11:07:19;;;;;;;28.08;16.42;;;;;;;;;;4942754;29;20078;-54
2024/01/11 11:09:46;;;;;;;26.77;15.57;;;2.10;99.90;;;;;;4943996;29;20074;-55
2024/01/11 11:12:12;;;;;;;27.90;15.73;;;;;;;;;;4943558;29;20043;-54
2024/01/11 11:14:39;;;;;;;27.55;14.60;;;;;;;;;;4944477;28;20063;-55
2024/01/11 11:17:06;;;;;;;25.85;15.95;;;;;;;;;;4944098;29;20046;-54
2024/01/11 11:19:32;;;;;;;28.45;16.38;;;;;;;;;;4944851;29;20102;-53
2024/01/11 11:21:58;;;;;;;25.15;15.07;;;;;;;;;;4943699;29;20058;-53
2024/01/11 11:24:23;;;;;;;27.02;14.50;;;2.50;99.90;;;;;;4943385;28;20047;-53
2024/01/11 11:26:50;;;;;;;24.77;14.35;;;;;;;;;;4944441;29;20506;-51
2024/01/11 11:29:16;;;;;;;23.45;14.95;;;;;;;;;;4942704;29;20046;-53
2024/01/11 11:31:43;;;;;;;27.65;14.75;;;;;;;;;;4943972;29;20107;-52
2024/01/11 11:34:13;;;;;;;25.73;15.18;;;2.60;99.90;;;;;;4941347;28;20043;-53
2024/01/11 11:36:41;;;;;;;23.80;14.07;;;;;;;;;;4939292;28;20040;-55
2024/01/11 11:39:11;;;;;;;22.05;14.30;;;;;;;;;;4942252;28;20082;-55
2024/01/11 11:41:38;;;;;;;24.05;14.23;;;;;;;;;;4944700;29;20498;-54
2024/01/11 11:44:05;;;;;;;22.48;12.40;;;;;;;;;;4940985;28;20050;-53
2024/01/11 11:46:32;;;;;;;20.38;12.05;;;;;;;;;;4945089;29;20047;-54
2024/01/11 11:48:58;;;;;;;22.30;12.65;;;;;;;;;;4942051;28;20058;-54
2024/01/11 11:51:24;;;;;;;22.75;11.43;;;;;;;;;;4941278;29;20133;-54
2024/01/11 11:53:52;;;;;;;23.95;12.77;;;;;;;;;;4941632;28;20530;-52
2024/01/11 11:56:19;;;;;;;19.08;11.40;;;3.60;99.90;;;;;;4941118;29;20035;-51
2024/01/11 11:58:46;;;;;;;20.45;11.75;;;;;;;;;;4943570;28;20046;-53
2024/01/11 12:01:12;;;;;;;20.88;11.30;;;;;;;;;;4941158;29;20491;-52
2024/01/11 12:03:39;;;;;;;23.38;10.32;;;;;;;;;;4942479;28;20635;-51
2024/01/11 12:06:06;;;;;;;22.45;11.40;;;;;;;;;;4942404;29;20035;-55
2024/01/11 12:08:32;;;;;;;18.73;11.05;;;;;;;;;;4944379;28;20039;-53
2024/01/11 12:10:58;;;;;;;17.40;9.85;;;3.40;99.90;;;;;;4944717;29;20055;-51
2024/01/11 12:13:25;;;;;;;18.77;9.55;;;;;;;;;;4946610;29;20158;-52
2024/01/11 12:15:51;;;;;;;19.33;10.05;;;3.40;99.90;;;;;;4944132;28;20046;-52
2024/01/11 12:18:17;;;;;;;18.35;8.15;;;;;;;;;;4943908;29;20035;-51
2024/01/11 12:20:43;;;;;;;17.45;8.60;;;;;;;;;;4946818;29;20055;-53
2024/01/11 12:23:09;;;;;;;20.83;8.20;;;;;;;;;;4947100;29;20463;-54
2024/01/11 12:25:35;;;;;;;16.88;8.15;;;;;;;;;;4947570;28;20419;-55
2024/01/11 12:28:01;;;;;;;14.18;6.20;;;;;;;;;;4945542;29;20047;-54
2024/01/11 12:30:29;;;;;;;19.30;7.30;;;;;;;;;;4945261;29;20384;-52
2024/01/11 12:32:55;;;;;;;19.85;7.75;;;3.30;99.90;;;;;;4946310;29;20047;-53
2024/01/11 12:35:22;;;;;;;18.95;7.95;;;;;;;;;;4943543;28;20792;-54
2024/01/11 12:37:54;;;;;;;17.65;6.85;;;4.10;99.90;;;;;;4943313;29;20043;-52
2024/01/11 12:40:20;;;;;;;18.15;6.50;;;;;;;;;;4944890;29;20046;-53
2024/01/11 12:42:46;;;;;;;18.55;5.82;;;;;;;;;;4928000;29;20051;-53
2024/01/11 12:45:13;;;;;;;16.15;5.90;;;;;;;;;;4945107;29;20058;-55
2024/01/11 12:47:39;;;;;;;21.35;6.68;;;;;;;;;;4946852;29;20046;-56
2024/01/11 12:50:07;;;;;;;20.05;6.65;;;;;;;;;;4942965;29;20122;-54
2024/01/11 12:52:33;;;;;;;20.92;6.25;;;;;;;;;;4947473;29;20130;-56
2024/01/11 12:54:59;;;;;;;19.33;5.78;;;3.90;99.90;;;;;;4946078;28;20138;-52
2024/01/11 12:57:26;;;;;;;14.45;5.22;;;;;;;;;;4944245;28;20047;-52
2024/01/11 12:59:52;;;;;;;19.83;6.38;;;4.00;99.90;;;;;;4928084;29;20066;-54
2024/01/11 13:02:19;;;;;;;22.65;6.68;;;;;;;;;;4944675;29;20468;-54
2024/01/11 13:04:46;;;;;;;26.02;6.32;;;;;;;;;;4944298;28;20051;-52
2024/01/11 13:07:13;;;;;;;22.73;5.55;;;;;;;;;;4945263;28;20086;-55
2024/01/11 13:09:39;;;;;;;18.30;6.07;;;;;;;;;;4945977;29;20039;-53
2024/01/11 13:12:06;;;;;;;17.58;5.57;;;;;;;;;;4946361;28;20078;-55
2024/01/11 13:14:32;;;;;;;21.75;5.53;;;;;;;;;;4944022;28;20067;-55
2024/01/11 13:16:58;;;;;;;19.98;5.30;;;;;;;;;;4944836;29;20629;-55
2024/01/11 13:19:24;;;;;;;20.88;6.13;;;;;;;;;;4942613;29;20043;-52
2024/01/11 13:21:50;;;;;;;26.50;5.63;;;;;;;;;;4943813;29;20126;-55
2024/01/11 13:24:16;;;;;;;15.07;4.53;;;;;;;;;;4945021;28;20050;-55
2024/01/11 13:26:42;;;;;;;17.63;5.28;;;4.10;99.90;;;;;;4945370;28;20047;-54
2024/01/11 13:29:11;;;;;;;27.42;6.43;;;;;;;;;;4944109;29;20071;-57
2024/01/11 13:31:37;;;;;;;27.30;5.00;;;;;;;;;;4943469;28;20098;-57
2024/01/11 13:34:04;;;;;;;24.83;4.50;;;;;;;;;;4942991;28;20043;-56
2024/01/11 13:36:30;;;;;;;15.00;4.82;;;;;;;;;;4941350;28;20058;-56
2024/01/11 13:38:55;;;;;;;20.30;5.53;;;4.20;99.90;;;;;;4944063;28;20055;-55
2024/01/11 13:41:22;;;;;;;26.67;5.10;;;;;;;;;;4943153;28;20069;-55
2024/01/11 13:43:48;;;;;;;17.50;4.95;;;;;;;;;;4945546;28;20058;-53
2024/01/11 13:46:19;;;;;;;25.15;8.02;;;;;;;;;;4944461;29;20043;-56
2024/01/11 13:48:46;;;;;;;28.05;6.93;;;;;;;;;;4945597;29;20506;-56
2024/01/11 13:51:14;;;;;;;19.25;5.95;;;;;;;;;;4943280;29;20138;-52
2024/01/11 13:53:40;;;;;;;18.60;4.80;;;;;;;;;;4932640;29;20411;-55